首页
METAR-TAF:

METAR-TAF

机场 :

Tofino, 不列颠哥伦比亚, 加拿大

纬度: 49-05N, 经度: 125-46W, 海拔: 24米

当前天气观测

该预报发布于31分钟前的01:00 UTC
风速11节,风向西,有时为19节阵风
温度 11°C
湿度 66%
气压 1026 hPa
能見度: 24.1公里
少量云层高于2500英尺
少量云层高于3300英尺

METAR: CYAZ 080100Z 28011G19KT 15SM FEW025 FEW033 11/05 A3029 RMK CU1SC1 SC TR LAST STFD OBS/NXT 081300UTC SLP259

时间: 18:31 (01:31 UTC)

预报

该预报发布于6小时和53分钟前的18:38 UTC
预报有效从07日的 19点(UTC)到 08日的 01点(UTC)
风速8节,风向西
能見度: 10公里
少量云层高于2500英尺
从 07日的 2100点(UTC)
风速10节,风向西,有时为20节阵风
能見度: 10公里
散云层高于3000英尺
短暂存在
从 07日的 21点(UTC)到 08日的 01点(UTC)
能見度: 10公里
多云层高于3000英尺
小阵雨

TAF: CYAZ 071838Z 0719/0801 27008KT P6SM FEW025 FM072100 27010G20KT P6SM SCT030 TEMPO 0721/0801 P6SM -SHRA BKN030 RMK NXT FCST WILL BE ISSUED AT 081445Z

超过4000个机场的气象观测和天气预报(METAR&TAF报告)。

可查询的气象台以黄色和红色小点在地图上表示。

将鼠标移到小点上方,可查看气象台名称。

然后点击查看天气观测和预报。

如需切换地图:点击带黑十字的绿色按钮放大地图;点击带横线的绿色按钮缩小地图;或者点击绿色箭头查看邻近地区的地图。


METAR-TAF: